Acme, North Carolina
Current Conditions -  °F | °C
As of 4:53 AM on Tuesday 21 Oct 2014 (Local Time) from KILM Reporting Station
Clear Clear  
Wind Chill: 55°   Ceiling: Unl
Heat Index: 55°   Visibility: 10mi
Dew Point: 53°   Wind: 0mph
Humidity: 93%   Direction: NA
Pressure: 29.93"   Gusts: NA
Location:  34.3494°N, 78.2681°W
Report Text: KILM 210853Z 00000KT 10SM CLR 13/12 A2993 RMK AO2 SLP135 T01280117 56012
Loading
Personal Weather Stations






























Interactive Weather Map New forecast layout! Learn more

10-Day Weather Forecast

Advertisements
Track Severe Weather on mobile